createdAt,value
2023-03-31T00:00:28.865Z,9.558411
2023-03-31T00:01:38.559Z,9.578552
2023-03-31T00:02:48.258Z,9.649048
2023-03-31T00:03:58.034Z,9.638977
2023-03-31T00:05:07.626Z,9.649048
2023-03-31T00:06:15.165Z,9.608765
2023-03-31T00:07:24.928Z,9.618835
2023-03-31T00:08:34.483Z,9.608765
2023-03-31T00:09:43.153Z,9.638977
2023-03-31T00:10:52.824Z,9.659119
2023-03-31T00:12:01.478Z,9.649048
2023-03-31T00:13:10.136Z,9.618835
2023-03-31T00:14:19.825Z,9.649048
2023-03-31T00:15:28.531Z,9.689331
2023-03-31T00:16:38.352Z,9.638977
2023-03-31T00:17:46.994Z,9.659119
2023-03-31T00:18:56.567Z,9.689331
2023-03-31T00:20:06.231Z,9.689331
2023-03-31T00:21:15.016Z,9.719543
2023-03-31T00:22:24.556Z,9.719543
2023-03-31T00:23:34.225Z,9.659119
2023-03-31T00:24:41.860Z,9.638977
2023-03-31T00:25:51.542Z,9.638977
2023-03-31T00:27:00.198Z,9.638977
2023-03-31T00:28:08.848Z,9.659119
2023-03-31T00:29:18.487Z,9.638977
2023-03-31T00:30:27.155Z,9.608765
2023-03-31T00:31:36.818Z,9.608765
2023-03-31T00:32:45.496Z,9.638977
2023-03-31T00:33:54.128Z,9.638977
2023-03-31T00:35:03.778Z,9.649048
2023-03-31T00:36:12.626Z,9.638977
2023-03-31T00:37:21.246Z,9.719543
2023-03-31T00:38:31.891Z,9.67926
2023-03-31T00:39:40.543Z,9.638977
2023-03-31T00:40:51.923Z,9.618835
2023-03-31T00:41:59.850Z,9.54834
2023-03-31T00:43:08.530Z,9.508057
2023-03-31T00:44:18.178Z,9.497986
2023-03-31T00:45:26.857Z,9.497986
2023-03-31T00:46:35.531Z,9.538269
2023-03-31T00:47:45.334Z,9.558411
2023-03-31T00:48:53.862Z,9.578552
2023-03-31T00:50:03.534Z,9.578552
2023-03-31T00:51:13.192Z,9.608765
2023-03-31T00:52:22.843Z,9.608765
2023-03-31T00:53:32.480Z,9.588623
2023-03-31T00:54:40.151Z,9.638977
2023-03-31T00:55:48.847Z,9.638977
2023-03-31T00:56:58.681Z,9.649048
2023-03-31T00:58:07.155Z,9.739685
2023-03-31T00:59:16.814Z,9.759827
2023-03-31T01:00:26.502Z,9.759827
2023-03-31T01:01:34.139Z,9.759827
2023-03-31T01:02:43.790Z,9.759827
2023-03-31T01:03:51.413Z,9.820251
2023-03-31T01:05:00.052Z,9.860535
2023-03-31T01:06:08.978Z,9.910889
2023-03-31T01:07:18.363Z,9.991455
2023-03-31T01:08:27.999Z,9.971313
2023-03-31T01:09:36.645Z,9.981384
2023-03-31T01:10:45.330Z,9.991455
2023-03-31T01:11:54.982Z,9.981384
2023-03-31T01:13:02.633Z,10.011597
2023-03-31T01:14:12.278Z,10.05188
2023-03-31T01:15:21.929Z,10.05188
2023-03-31T01:16:31.689Z,9.971313
2023-03-31T01:17:41.391Z,9.971313
2023-03-31T01:18:50.138Z,9.991455
2023-03-31T01:19:57.654Z,9.981384
2023-03-31T01:21:07.316Z,9.951172
2023-03-31T01:22:15.000Z,9.941101
2023-03-31T01:23:23.604Z,9.941101
2023-03-31T01:24:33.250Z,9.981384
2023-03-31T01:25:42.966Z,9.981384
2023-03-31T01:26:51.611Z,9.991455
2023-03-31T01:28:00.313Z,9.951172
2023-03-31T01:29:07.955Z,9.971313
2023-03-31T01:30:17.612Z,9.981384
2023-03-31T01:31:25.334Z,10.011597
2023-03-31T01:32:33.944Z,10.05188
2023-03-31T01:33:43.572Z,10.072021
2023-03-31T01:34:51.214Z,10.132446
2023-03-31T01:36:00.901Z,10.05188
2023-03-31T01:37:09.553Z,10.041809
2023-03-31T01:38:18.194Z,10.072021
2023-03-31T01:39:27.822Z,10.072021
2023-03-31T01:40:35.465Z,10.021667
2023-03-31T01:41:45.173Z,10.011597
2023-03-31T01:42:53.801Z,9.991455
2023-03-31T01:44:01.452Z,9.981384
2023-03-31T01:45:11.090Z,9.971313
2023-03-31T01:46:18.785Z,9.941101
2023-03-31T01:47:27.430Z,9.910889
2023-03-31T01:48:37.071Z,9.840393
2023-03-31T01:49:44.715Z,9.830322
2023-03-31T01:50:53.365Z,9.80011
2023-03-31T01:52:03.188Z,9.820251
2023-03-31T01:53:11.826Z,9.860535
2023-03-31T01:54:21.512Z,9.830322
2023-03-31T01:55:31.126Z,9.830322
2023-03-31T01:56:39.888Z,9.870605
2023-03-31T01:57:48.515Z,9.830322
2023-03-31T01:58:58.184Z,9.870605
2023-03-31T02:00:06.851Z,9.910889
2023-03-31T02:01:16.577Z,9.890747
2023-03-31T02:02:26.225Z,9.910889
2023-03-31T02:03:33.947Z,9.920959
2023-03-31T02:04:43.489Z,9.941101
2023-03-31T02:05:52.137Z,9.951172
2023-03-31T02:07:01.811Z,9.991455
2023-03-31T02:08:11.469Z,10.011597
2023-03-31T02:09:20.112Z,10.05188
2023-03-31T02:10:28.810Z,10.05188
2023-03-31T02:11:38.443Z,10.072021
2023-03-31T02:12:47.096Z,10.041809
2023-03-31T02:13:56.760Z,10.092163
2023-03-31T02:15:04.393Z,10.092163
2023-03-31T02:16:13.053Z,10.102234
2023-03-31T02:17:22.814Z,10.092163
2023-03-31T02:18:30.370Z,10.122375
2023-03-31T02:19:40.022Z,10.072021
2023-03-31T02:20:49.677Z,10.092163
2023-03-31T02:21:56.335Z,10.072021
2023-03-31T02:23:05.980Z,10.122375
2023-03-31T02:24:13.628Z,10.152588
2023-03-31T02:25:22.277Z,10.132446
2023-03-31T02:26:31.960Z,10.092163
2023-03-31T02:27:41.722Z,10.072021
2023-03-31T02:28:51.364Z,10.152588
2023-03-31T02:30:00.018Z,10.122375
2023-03-31T02:31:08.703Z,10.092163
2023-03-31T02:32:18.379Z,10.172729
2023-03-31T02:33:26.044Z,10.132446
2023-03-31T02:34:33.689Z,10.172729
2023-03-31T02:35:42.378Z,10.172729
2023-03-31T02:36:51.028Z,10.233154
2023-03-31T02:38:00.727Z,10.30365
2023-03-31T02:39:10.377Z,10.253296
2023-03-31T02:40:18.026Z,10.202942
2023-03-31T02:41:27.684Z,10.223083
2023-03-31T02:42:36.412Z,10.283508
2023-03-31T02:43:45.003Z,10.172729
2023-03-31T02:44:54.662Z,10.233154
2023-03-31T02:46:02.343Z,10.283508
2023-03-31T02:47:11.978Z,10.313721
2023-03-31T02:48:21.635Z,10.374146
2023-03-31T02:49:31.281Z,10.283508
2023-03-31T02:50:40.926Z,10.313721
2023-03-31T02:51:48.571Z,10.30365
2023-03-31T02:52:58.259Z,10.333862
2023-03-31T02:54:07.903Z,10.384216
2023-03-31T02:55:16.562Z,10.384216
2023-03-31T02:56:26.184Z,10.354004
2023-03-31T02:57:35.872Z,10.414429
2023-03-31T02:58:43.542Z,10.4245
2023-03-31T02:59:53.169Z,10.4245
2023-03-31T03:01:01.824Z,10.30365
2023-03-31T03:02:11.526Z,10.253296
2023-03-31T03:03:21.217Z,10.223083
2023-03-31T03:04:28.782Z,10.021667
2023-03-31T03:05:38.437Z,9.991455
2023-03-31T03:06:47.085Z,10.122375
2023-03-31T03:07:54.757Z,10.132446
2023-03-31T03:09:04.450Z,10.192871
2023-03-31T03:10:12.053Z,10.202942
2023-03-31T03:11:21.698Z,10.253296
2023-03-31T03:12:31.374Z,10.162659
2023-03-31T03:13:39.020Z,10.192871
2023-03-31T03:14:48.771Z,10.233154
2023-03-31T03:15:58.306Z,10.253296
2023-03-31T03:17:06.950Z,10.233154
2023-03-31T03:18:16.615Z,10.162659
2023-03-31T03:19:25.294Z,10.132446
2023-03-31T03:20:33.941Z,10.102234
2023-03-31T03:21:43.577Z,10.05188
2023-03-31T03:22:51.249Z,10.072021
2023-03-31T03:24:00.925Z,10.072021
2023-03-31T03:25:09.570Z,10.102234
2023-03-31T03:26:18.208Z,10.102234
2023-03-31T03:27:27.886Z,10.05188
2023-03-31T03:28:36.526Z,10.011597
2023-03-31T03:29:45.166Z,9.971313
2023-03-31T03:30:54.855Z,9.941101
2023-03-31T03:32:04.472Z,9.941101
2023-03-31T03:33:15.509Z,9.920959
2023-03-31T03:34:23.775Z,9.890747
2023-03-31T03:35:32.426Z,9.840393
2023-03-31T03:36:42.083Z,9.830322
2023-03-31T03:37:49.704Z,9.820251
2023-03-31T03:38:59.431Z,9.830322
2023-03-31T03:40:09.050Z,9.890747
2023-03-31T03:41:17.707Z,9.860535
2023-03-31T03:42:27.406Z,9.860535
2023-03-31T03:43:36.093Z,9.820251
2023-03-31T03:44:43.739Z,9.790039
2023-03-31T03:45:53.386Z,9.820251
2023-03-31T03:47:02.051Z,9.830322
2023-03-31T03:48:10.741Z,9.80011
2023-03-31T03:49:20.353Z,9.790039
2023-03-31T03:50:28.000Z,9.830322
2023-03-31T03:51:37.649Z,9.80011
2023-03-31T03:52:46.314Z,9.790039
2023-03-31T03:53:55.958Z,9.830322
2023-03-31T03:55:05.595Z,9.790039
2023-03-31T03:56:15.250Z,9.80011
2023-03-31T03:57:24.932Z,9.790039
2023-03-31T03:58:34.572Z,9.80011
2023-03-31T03:59:43.304Z,9.790039
2023-03-31T04:00:51.894Z,9.80011
2023-03-31T04:02:01.581Z,9.820251
2023-03-31T04:03:10.283Z,9.80011
2023-03-31T04:04:19.868Z,9.759827
2023-03-31T04:05:29.643Z,9.790039
2023-03-31T04:06:37.240Z,9.820251
2023-03-31T04:07:46.940Z,9.840393
2023-03-31T04:08:55.587Z,9.890747
2023-03-31T04:10:05.234Z,9.920959
2023-03-31T04:11:16.085Z,9.910889
2023-03-31T04:12:24.536Z,9.951172
2023-03-31T04:13:33.194Z,9.951172
2023-03-31T04:14:41.837Z,9.951172
2023-03-31T04:15:49.536Z,9.971313
2023-03-31T04:16:59.166Z,9.981384
2023-03-31T04:18:07.838Z,10.021667
2023-03-31T04:19:17.599Z,10.021667
2023-03-31T04:20:27.167Z,10.011597
2023-03-31T04:21:34.927Z,10.021667
2023-03-31T04:22:43.475Z,10.021667
2023-03-31T04:23:53.142Z,9.971313
2023-03-31T04:25:00.809Z,9.981384
2023-03-31T04:26:10.467Z,10.011597
2023-03-31T04:27:19.090Z,9.991455
2023-03-31T04:28:28.765Z,9.991455
2023-03-31T04:29:38.402Z,9.991455
2023-03-31T04:30:47.050Z,10.011597
2023-03-31T04:31:55.699Z,10.011597
2023-03-31T04:33:05.413Z,10.041809
2023-03-31T04:34:13.009Z,10.011597
2023-03-31T04:35:22.697Z,10.011597
2023-03-31T04:36:32.313Z,10.011597
2023-03-31T04:37:40.947Z,10.011597
2023-03-31T04:38:50.632Z,10.011597
2023-03-31T04:39:59.265Z,10.041809
2023-03-31T04:41:07.916Z,10.05188
2023-03-31T04:42:17.567Z,10.041809
2023-03-31T04:43:26.324Z,10.041809
2023-03-31T04:44:34.915Z,10.041809
2023-03-31T04:45:44.595Z,9.971313
2023-03-31T04:46:53.215Z,9.860535
2023-03-31T04:48:02.906Z,9.790039
2023-03-31T04:49:10.515Z,9.790039
2023-03-31T04:50:20.254Z,9.759827
2023-03-31T04:51:29.930Z,9.739685
2023-03-31T04:52:39.567Z,9.769897
2023-03-31T04:53:49.312Z,9.739685
2023-03-31T04:54:59.145Z,9.659119
2023-03-31T04:56:06.893Z,9.608765
2023-03-31T04:57:16.528Z,9.558411
2023-03-31T04:58:24.109Z,9.578552
2023-03-31T04:59:32.752Z,9.578552
2023-03-31T05:00:42.410Z,9.54834
2023-03-31T05:01:50.105Z,9.497986
2023-03-31T05:02:59.778Z,9.477844
2023-03-31T05:04:08.411Z,9.457703
2023-03-31T05:05:17.066Z,9.538269
2023-03-31T05:06:26.754Z,9.538269
2023-03-31T05:07:35.446Z,9.54834
2023-03-31T05:08:44.104Z,9.497986
2023-03-31T05:09:53.757Z,9.437561
2023-03-31T05:11:03.407Z,9.397278
2023-03-31T05:12:13.074Z,9.397278
2023-03-31T05:13:21.713Z,9.437561
2023-03-31T05:14:30.402Z,9.457703
2023-03-31T05:15:40.061Z,9.397278
2023-03-31T05:16:47.734Z,9.407349
2023-03-31T05:17:56.445Z,9.397278
2023-03-31T05:19:06.119Z,9.397278
2023-03-31T05:20:14.777Z,9.407349
2023-03-31T05:21:24.426Z,9.356995
2023-03-31T05:22:33.076Z,9.316711
2023-03-31T05:23:42.895Z,9.356995
2023-03-31T05:24:52.514Z,9.387207
2023-03-31T05:26:01.160Z,9.397278
2023-03-31T05:27:10.848Z,9.367065
2023-03-31T05:28:20.500Z,9.367065
2023-03-31T05:29:28.182Z,9.42749
2023-03-31T05:30:37.838Z,9.397278
2023-03-31T05:31:46.525Z,9.397278
2023-03-31T05:32:55.205Z,9.367065
2023-03-31T05:34:03.856Z,9.407349
2023-03-31T05:35:13.527Z,9.42749
2023-03-31T05:36:23.201Z,9.397278
2023-03-31T05:37:32.841Z,9.407349
2023-03-31T05:38:40.499Z,9.42749
2023-03-31T05:39:50.205Z,9.437561
2023-03-31T05:40:59.843Z,9.508057
2023-03-31T05:42:08.509Z,9.497986
2023-03-31T05:43:17.174Z,9.477844
2023-03-31T05:44:24.859Z,9.497986
2023-03-31T05:45:33.505Z,9.467773
2023-03-31T05:46:42.250Z,9.508057
2023-03-31T05:47:49.891Z,9.54834
2023-03-31T05:48:59.502Z,9.538269
2023-03-31T05:50:08.157Z,9.538269
2023-03-31T05:51:17.800Z,9.538269
2023-03-31T05:52:27.456Z,9.558411
2023-03-31T05:53:37.127Z,9.608765
2023-03-31T05:54:45.895Z,9.608765
2023-03-31T05:55:54.740Z,9.588623
2023-03-31T05:57:04.285Z,9.54834
2023-03-31T05:58:12.884Z,9.659119
2023-03-31T05:59:22.571Z,9.729614
2023-03-31T06:00:32.231Z,9.759827
2023-03-31T06:01:40.992Z,9.739685
2023-03-31T06:02:50.605Z,9.729614
2023-03-31T06:03:58.244Z,9.67926
2023-03-31T06:05:07.869Z,9.649048
2023-03-31T06:06:16.578Z,9.638977
2023-03-31T06:07:24.178Z,9.649048
2023-03-31T06:08:32.826Z,9.608765
2023-03-31T06:09:40.559Z,9.659119
2023-03-31T06:10:50.204Z,9.729614
2023-03-31T06:11:59.883Z,9.769897
2023-03-31T06:13:09.526Z,9.759827
2023-03-31T06:14:19.204Z,9.739685
2023-03-31T06:15:27.976Z,9.790039
2023-03-31T06:16:37.774Z,9.729614
2023-03-31T06:17:47.450Z,9.820251
2023-03-31T06:18:55.080Z,9.870605
2023-03-31T06:20:10.110Z,9.890747
2023-03-31T06:21:14.402Z,9.910889
2023-03-31T06:22:23.049Z,9.860535
2023-03-31T06:23:32.702Z,9.840393
2023-03-31T06:24:41.568Z,9.890747
2023-03-31T06:25:51.584Z,9.910889
2023-03-31T06:26:58.766Z,10.011597
2023-03-31T06:28:07.457Z,10.041809
2023-03-31T06:29:16.092Z,9.971313
2023-03-31T06:30:25.775Z,10.011597
2023-03-31T06:31:32.463Z,10.011597
2023-03-31T06:32:42.184Z,9.971313
2023-03-31T06:33:50.756Z,10.021667
2023-03-31T06:35:00.447Z,10.152588
2023-03-31T06:36:10.130Z,10.152588
2023-03-31T06:37:18.776Z,10.172729
2023-03-31T06:38:27.447Z,10.162659
2023-03-31T06:39:37.120Z,10.192871
2023-03-31T06:40:43.801Z,10.152588
2023-03-31T06:41:53.499Z,10.172729
2023-03-31T06:43:02.135Z,10.233154
2023-03-31T06:44:10.806Z,10.202942
2023-03-31T06:45:20.686Z,10.30365
2023-03-31T06:46:29.351Z,10.313721
2023-03-31T06:47:39.011Z,10.313721
2023-03-31T06:48:48.684Z,10.354004
2023-03-31T06:49:56.327Z,10.484924
2023-03-31T06:51:05.977Z,10.464783
2023-03-31T06:52:14.648Z,10.384216
2023-03-31T06:53:23.279Z,10.444641
2023-03-31T06:54:32.957Z,10.494995
2023-03-31T06:55:40.642Z,10.505066
2023-03-31T06:56:50.332Z,10.505066
2023-03-31T06:57:59.979Z,10.605774
2023-03-31T06:59:07.657Z,10.505066
2023-03-31T07:00:17.345Z,10.494995
2023-03-31T07:01:27.029Z,10.535278
2023-03-31T07:02:36.701Z,10.565491
2023-03-31T07:03:46.385Z,10.595703
2023-03-31T07:04:54.952Z,10.595703
2023-03-31T07:06:03.643Z,10.595703
2023-03-31T07:07:13.288Z,10.635986
2023-03-31T07:08:20.943Z,10.525208
2023-03-31T07:09:30.598Z,10.494995
2023-03-31T07:10:39.311Z,10.635986
2023-03-31T07:11:46.988Z,10.525208
2023-03-31T07:12:57.635Z,10.494995
2023-03-31T07:14:06.273Z,10.505066
2023-03-31T07:15:14.932Z,10.494995
2023-03-31T07:16:24.653Z,10.505066
2023-03-31T07:17:34.313Z,10.585632
2023-03-31T07:18:43.952Z,10.55542
2023-03-31T07:19:52.622Z,10.55542
2023-03-31T07:21:00.315Z,10.55542
2023-03-31T07:22:10.962Z,10.605774
2023-03-31T07:23:20.612Z,10.67627
2023-03-31T07:24:29.269Z,10.67627
2023-03-31T07:25:38.952Z,10.67627
2023-03-31T07:26:47.639Z,10.67627
2023-03-31T07:27:57.293Z,10.484924
2023-03-31T07:29:05.951Z,10.414429
2023-03-31T07:30:14.606Z,10.374146
2023-03-31T07:31:24.703Z,10.333862
2023-03-31T07:32:33.416Z,10.414429
2023-03-31T07:33:42.034Z,10.484924
2023-03-31T07:34:51.697Z,10.505066
2023-03-31T07:36:10.482Z,10.55542
2023-03-31T07:37:10.019Z,10.565491
2023-03-31T07:38:18.667Z,10.525208
2023-03-31T07:39:26.336Z,10.494995
2023-03-31T07:40:36.003Z,10.414429
2023-03-31T07:41:43.699Z,10.464783
2023-03-31T07:42:53.362Z,10.494995
2023-03-31T07:44:03.018Z,10.484924
2023-03-31T07:45:10.685Z,10.535278
2023-03-31T07:46:20.406Z,10.484924
2023-03-31T07:47:29.070Z,10.444641
2023-03-31T07:48:36.734Z,10.444641
2023-03-31T07:49:45.359Z,10.535278
2023-03-31T07:50:55.033Z,10.525208
2023-03-31T07:52:02.711Z,10.505066
2023-03-31T07:53:12.366Z,10.505066
2023-03-31T07:54:21.028Z,10.565491
2023-03-31T07:55:28.712Z,10.585632
2023-03-31T07:56:38.413Z,10.565491
2023-03-31T07:57:47.052Z,10.494995
2023-03-31T07:58:57.472Z,10.414429
2023-03-31T08:00:05.383Z,10.444641
2023-03-31T08:01:13.033Z,10.4245
2023-03-31T08:02:22.812Z,10.4245
2023-03-31T08:03:31.412Z,10.525208
2023-03-31T08:04:40.157Z,10.635986
2023-03-31T08:05:51.811Z,10.535278
2023-03-31T08:06:59.377Z,10.595703
2023-03-31T08:08:09.058Z,10.635986
2023-03-31T08:09:18.730Z,10.716553
2023-03-31T08:10:28.373Z,10.756836
2023-03-31T08:11:37.030Z,10.787048
2023-03-31T08:12:46.739Z,10.776978
2023-03-31T08:13:55.385Z,10.666199
2023-03-31T08:15:05.082Z,10.68634
2023-03-31T08:16:12.824Z,10.635986
2023-03-31T08:17:22.431Z,10.706482
2023-03-31T08:18:32.111Z,10.746765
2023-03-31T08:19:39.762Z,10.857544
2023-03-31T08:20:49.607Z,10.787048
2023-03-31T08:21:59.100Z,10.746765
2023-03-31T08:23:08.771Z,10.716553
2023-03-31T08:24:18.440Z,10.625916
2023-03-31T08:25:26.084Z,10.595703
2023-03-31T08:26:33.746Z,10.605774
2023-03-31T08:27:43.459Z,10.67627
2023-03-31T08:28:51.104Z,10.605774
2023-03-31T08:30:00.753Z,10.625916
2023-03-31T08:31:09.407Z,10.706482
2023-03-31T08:32:18.092Z,10.787048
2023-03-31T08:33:27.740Z,10.67627
2023-03-31T08:34:35.383Z,10.625916
2023-03-31T08:35:44.058Z,10.666199
2023-03-31T08:36:53.717Z,10.635986
2023-03-31T08:38:04.388Z,10.605774
2023-03-31T08:39:14.025Z,10.635986
2023-03-31T08:40:23.694Z,10.746765
2023-03-31T08:41:32.352Z,10.80719
2023-03-31T08:42:42.034Z,10.80719
2023-03-31T08:43:49.656Z,10.897827
2023-03-31T08:44:58.344Z,10.917969
2023-03-31T08:46:08.193Z,10.887756
2023-03-31T08:47:17.689Z,10.756836
2023-03-31T08:48:27.345Z,10.67627
2023-03-31T08:49:36.092Z,10.666199
2023-03-31T08:50:44.752Z,10.625916
2023-03-31T08:51:54.410Z,10.67627
2023-03-31T08:53:02.133Z,10.68634
2023-03-31T08:54:11.941Z,10.756836
2023-03-31T08:55:20.415Z,10.716553
2023-03-31T08:56:29.067Z,10.736694
2023-03-31T08:57:38.752Z,10.776978
2023-03-31T08:58:47.406Z,10.837402
2023-03-31T08:59:56.043Z,10.867615
2023-03-31T09:01:04.899Z,10.968323
2023-03-31T09:02:13.461Z,11.018677
2023-03-31T09:03:22.113Z,10.988464
2023-03-31T09:04:31.727Z,10.958252
2023-03-31T09:05:49.309Z,11.018677
2023-03-31T09:06:51.019Z,11.119385
2023-03-31T09:07:59.719Z,11.17981
2023-03-31T09:09:09.396Z,11.361084
2023-03-31T09:10:19.042Z,11.471863
2023-03-31T09:11:28.688Z,11.542358
2023-03-31T09:12:38.400Z,11.542358
2023-03-31T09:13:47.041Z,11.602783
2023-03-31T09:14:54.689Z,11.773987
2023-03-31T09:16:04.597Z,11.784058
2023-03-31T09:17:15.083Z,11.784058
2023-03-31T09:18:25.359Z,11.804199
2023-03-31T09:19:33.538Z,11.81427
2023-03-31T09:20:43.183Z,11.753845
2023-03-31T09:21:52.844Z,11.733704
2023-03-31T09:23:02.525Z,11.753845
2023-03-31T09:24:11.211Z,11.753845
2023-03-31T09:25:20.914Z,11.904907
2023-03-31T09:26:31.535Z,12.06604
2023-03-31T09:27:40.226Z,12.217102
2023-03-31T09:28:49.947Z,12.207031
2023-03-31T09:29:59.628Z,12.166748
2023-03-31T09:31:08.545Z,12.358093
2023-03-31T09:32:18.136Z,12.418518
2023-03-31T09:33:26.855Z,12.549438
2023-03-31T09:34:36.545Z,12.7005
2023-03-31T09:35:46.231Z,12.82135
2023-03-31T09:36:54.838Z,13.032837
2023-03-31T09:38:04.526Z,13.133545
2023-03-31T09:39:13.214Z,13.435669
2023-03-31T09:40:21.860Z,13.848572
2023-03-31T09:41:33.024Z,13.959351
2023-03-31T09:42:41.268Z,14.070129
2023-03-31T09:43:50.945Z,14.0802
2023-03-31T09:44:58.622Z,14.120483
2023-03-31T09:46:09.900Z,14.100342
2023-03-31T09:47:14.999Z,13.94928
2023-03-31T09:48:24.630Z,13.929138
2023-03-31T09:49:33.284Z,13.929138
2023-03-31T09:50:43.946Z,13.717651
2023-03-31T09:51:52.626Z,13.868713
2023-03-31T09:53:02.033Z,13.848572
2023-03-31T09:54:11.701Z,13.747864
2023-03-31T09:55:28.737Z,13.737793
2023-03-31T09:56:31.011Z,13.707581
2023-03-31T09:57:40.745Z,13.596802
2023-03-31T09:58:50.375Z,13.616943
2023-03-31T10:00:00.039Z,13.737793
2023-03-31T10:01:08.829Z,13.848572
2023-03-31T10:02:16.341Z,13.848572
2023-03-31T10:03:26.047Z,13.848572
2023-03-31T10:04:34.779Z,13.858643
2023-03-31T10:05:43.345Z,14.100342
2023-03-31T10:06:54.007Z,14.150696
2023-03-31T10:08:01.679Z,14.120483
2023-03-31T10:09:10.460Z,14.070129
2023-03-31T10:10:19.184Z,14.170837
2023-03-31T10:11:26.807Z,14.070129
2023-03-31T10:12:36.499Z,14.110413
2023-03-31T10:13:45.425Z,14.170837
2023-03-31T10:14:54.000Z,14.049988
2023-03-31T10:16:03.683Z,14.049988
2023-03-31T10:17:11.361Z,13.989563
2023-03-31T10:18:21.126Z,13.919067
2023-03-31T10:19:29.759Z,14.150696
2023-03-31T10:20:37.424Z,14.140625
2023-03-31T10:21:47.086Z,14.251404
2023-03-31T10:22:56.760Z,14.442749
2023-03-31T10:24:05.980Z,14.412537
2023-03-31T10:25:15.636Z,14.472961
2023-03-31T10:26:24.334Z,14.45282
2023-03-31T10:27:32.988Z,14.33197
2023-03-31T10:28:42.670Z,14.402466
2023-03-31T10:29:50.362Z,14.472961
2023-03-31T10:31:00.036Z,14.402466
2023-03-31T10:32:08.018Z,14.33197
2023-03-31T10:33:22.519Z,14.33197
2023-03-31T10:34:26.344Z,14.412537
2023-03-31T10:35:34.085Z,14.301758
2023-03-31T10:36:43.698Z,14.372253
2023-03-31T10:37:53.389Z,14.412537
2023-03-31T10:39:02.078Z,14.362183
2023-03-31T10:40:11.733Z,14.442749
2023-03-31T10:41:20.436Z,14.664307
2023-03-31T10:42:29.122Z,14.775085
2023-03-31T10:43:38.810Z,14.765015
2023-03-31T10:44:47.483Z,14.936218
2023-03-31T10:45:57.188Z,15.147705
2023-03-31T10:47:06.852Z,15.570679
2023-03-31T10:48:15.463Z,15.903015
2023-03-31T10:49:25.167Z,15.59082
2023-03-31T10:50:33.830Z,15.439758
2023-03-31T10:51:42.489Z,15.681458
2023-03-31T10:52:52.174Z,15.903015
2023-03-31T10:53:59.886Z,16.154785
2023-03-31T10:55:09.533Z,16.235352
2023-03-31T10:56:18.222Z,15.953369
2023-03-31T10:57:27.888Z,15.973511
2023-03-31T10:58:37.533Z,16.154785
2023-03-31T10:59:47.215Z,16.195068
2023-03-31T11:00:55.894Z,15.923157
2023-03-31T11:02:05.629Z,16.003723
2023-03-31T11:03:15.333Z,15.953369
2023-03-31T11:04:24.931Z,16.003723
2023-03-31T11:05:33.631Z,16.023865
2023-03-31T11:06:42.301Z,15.792236
2023-03-31T11:07:51.949Z,15.671387
2023-03-31T11:08:59.670Z,15.58075
2023-03-31T11:10:08.376Z,15.419617
2023-03-31T11:11:18.059Z,15.369263
2023-03-31T11:12:26.735Z,15.177917
2023-03-31T11:13:36.393Z,15.026855
2023-03-31T11:14:45.113Z,14.95636
2023-03-31T11:15:52.856Z,14.875793
2023-03-31T11:17:02.520Z,14.805298
2023-03-31T11:18:10.180Z,14.694519
2023-03-31T11:19:19.897Z,14.503174
2023-03-31T11:20:30.856Z,14.33197
2023-03-31T11:21:37.311Z,14.070129
2023-03-31T11:22:46.962Z,13.898926
2023-03-31T11:23:56.623Z,13.69751
2023-03-31T11:25:06.362Z,13.556519
2023-03-31T11:26:15.967Z,13.365173
2023-03-31T11:27:24.651Z,13.204041
2023-03-31T11:28:34.325Z,13.093262
2023-03-31T11:29:44.016Z,12.952271
2023-03-31T11:30:51.675Z,12.791138
2023-03-31T11:32:01.377Z,12.619934
2023-03-31T11:33:10.029Z,12.035828
2023-03-31T11:34:17.704Z,11.502075
2023-03-31T11:35:27.387Z,11.099243
2023-03-31T11:36:36.058Z,10.776978
2023-03-31T11:37:44.703Z,10.635986
2023-03-31T11:38:54.360Z,10.494995
2023-03-31T11:40:02.070Z,10.4245
2023-03-31T11:41:11.724Z,10.444641
2023-03-31T11:42:21.381Z,10.484924
2023-03-31T11:43:30.027Z,10.585632
2023-03-31T11:44:38.676Z,10.595703
2023-03-31T11:45:48.408Z,10.625916
2023-03-31T11:46:57.046Z,10.706482
2023-03-31T11:48:07.794Z,10.776978
2023-03-31T11:49:16.391Z,10.897827
2023-03-31T11:50:24.114Z,10.998535
2023-03-31T11:51:33.765Z,11.099243
2023-03-31T11:52:43.431Z,11.220093
2023-03-31T11:53:52.070Z,11.169739
2023-03-31T11:55:03.180Z,11.17981
2023-03-31T11:56:09.489Z,11.139526
2023-03-31T11:57:19.105Z,11.17981
2023-03-31T11:58:28.761Z,11.18988
2023-03-31T11:59:36.421Z,11.270447
2023-03-31T12:00:46.101Z,11.44165
2023-03-31T12:01:53.758Z,11.542358
2023-03-31T12:03:02.519Z,11.602783
2023-03-31T12:04:12.166Z,11.784058
2023-03-31T12:05:20.897Z,11.834412
2023-03-31T12:06:30.593Z,12.025757
2023-03-31T12:07:40.155Z,12.19696
2023-03-31T12:08:49.824Z,12.348022
2023-03-31T12:09:59.477Z,12.499084
2023-03-31T12:11:07.213Z,12.791138
2023-03-31T12:12:15.882Z,13.304749
2023-03-31T12:13:25.551Z,13.455811
2023-03-31T12:14:33.216Z,13.586731
2023-03-31T12:15:42.934Z,13.385315
2023-03-31T12:16:51.581Z,13.536377
2023-03-31T12:18:00.332Z,13.969421
2023-03-31T12:19:09.889Z,14.483032
2023-03-31T12:20:18.618Z,14.765015
2023-03-31T12:21:27.256Z,15.137634
2023-03-31T12:22:35.962Z,14.83551
2023-03-31T12:23:45.599Z,14.412537
2023-03-31T12:24:55.263Z,14.170837
2023-03-31T12:26:05.054Z,14.100342
2023-03-31T12:27:13.588Z,13.919067
2023-03-31T12:28:24.095Z,13.707581
2023-03-31T12:29:33.101Z,13.616943
2023-03-31T12:30:41.806Z,13.556519
2023-03-31T12:31:51.518Z,13.667297
2023-03-31T12:33:00.138Z,13.808289
2023-03-31T12:34:09.784Z,14.140625
2023-03-31T12:35:19.453Z,14.432678
2023-03-31T12:36:28.160Z,14.654236
2023-03-31T12:37:37.815Z,14.684448
2023-03-31T12:38:45.715Z,14.765015
2023-03-31T12:39:55.199Z,14.785156
2023-03-31T12:41:04.864Z,14.321899
2023-03-31T12:42:12.533Z,14.120483
2023-03-31T12:43:22.182Z,13.999634
2023-03-31T12:44:31.897Z,14.049988
2023-03-31T12:45:39.541Z,13.898926
2023-03-31T12:46:49.220Z,13.808289
2023-03-31T12:47:57.843Z,13.848572
2023-03-31T12:49:06.502Z,13.919067
2023-03-31T12:50:15.152Z,13.929138
2023-03-31T12:51:22.813Z,13.858643
2023-03-31T12:52:32.478Z,13.778076
2023-03-31T12:53:42.130Z,13.82843
2023-03-31T12:54:50.811Z,13.808289
2023-03-31T12:56:00.461Z,13.747864
2023-03-31T12:57:08.192Z,13.808289
2023-03-31T12:58:17.756Z,13.82843
2023-03-31T12:59:27.404Z,13.868713
2023-03-31T13:00:36.094Z,14.029846
2023-03-31T13:01:45.542Z,14.100342
2023-03-31T13:02:54.193Z,14.603882
2023-03-31T13:04:01.888Z,15.389404
2023-03-31T13:05:11.543Z,15.903015
2023-03-31T13:06:20.241Z,16.003723
2023-03-31T13:07:29.482Z,15.913086
2023-03-31T13:08:38.582Z,15.369263
2023-03-31T13:09:46.230Z,14.986572
2023-03-31T13:10:55.965Z,14.553528
2023-03-31T13:12:05.574Z,14.362183
2023-03-31T13:13:14.217Z,14.20105
2023-03-31T13:14:23.862Z,14.0802
2023-03-31T13:15:31.548Z,13.929138
2023-03-31T13:16:41.276Z,13.868713
2023-03-31T13:17:50.948Z,13.868713